Time;durP1;ratioP1;P1;durP2;ratioP2;P2;SDS_P1;SDS_P2;PMS_P1;PMS_P2;Temp;Humidity;BMP_temperature;BMP_pressure;BME280_temperature;BME280_humidity;BME280_pressure;Samples;Min_cycle;Max_cycle;Signal;HPM_P1;HPM_P2
2022/05/11 00:01:32;;;;;;;;;;;;;;;27.92;27.08;101066.38;5071365;28;1315;-37
2022/05/11 00:03:58;;;;;;;;;;;;;;;27.85;27.42;101063.56;5075178;28;1353;-39
2022/05/11 00:06:23;;;;;;;;;;;;;;;27.86;27.66;101067.94;5057765;28;968;-37
2022/05/11 00:08:48;;;;;;;;;;;;;;;27.86;27.57;101062.53;5075658;28;1120;-38
2022/05/11 00:11:14;;;;;;;;;;;;;;;27.79;27.89;101056.19;5075780;28;899;-40
2022/05/11 00:13:40;;;;;;;;;;;;;;;27.79;28.09;101056.19;5076184;28;830;-37
2022/05/11 00:16:05;;;;;;;;;;;;;;;27.72;27.96;101056.06;5075573;28;1972;-40
2022/05/11 00:18:30;;;;;;;;;;;;;;;27.62;28.25;101056.25;5076043;28;865;-36
2022/05/11 00:20:55;;;;;;;;;;;;;;;27.62;28.40;101056.25;5076200;28;1100;-39
2022/05/11 00:23:21;;;;;;;;;;;;;;;27.59;28.34;101050.38;5075299;28;732;-39
2022/05/11 00:25:47;;;;;;;;;;;;;;;27.58;28.40;101054.91;5075548;28;1064;-36
2022/05/11 00:28:12;;;;;;;;;;;;;;;27.56;28.60;101056.13;5075983;28;892;-38
2022/05/11 00:30:38;;;;;;;;;;;;;;;27.46;28.71;101056.38;5075417;28;845;-36
2022/05/11 00:33:03;;;;;;;;;;;;;;;27.55;28.70;101049.03;5077050;28;818;-38
2022/05/11 00:35:29;;;;;;;;;;;;;;;27.53;28.96;101048.38;5079645;28;1906;-37
2022/05/11 00:37:54;;;;;;;;;;;;;;;27.45;28.97;101043.84;5078846;28;929;-40
2022/05/11 00:40:20;;;;;;;;;;;;;;;27.57;28.72;101050.56;5079235;28;827;-39
2022/05/11 00:42:45;;;;;;;;;;;;;;;27.70;28.60;101043.72;5079347;28;888;-39
2022/05/11 00:45:10;;;;;;;;;;;;;;;27.72;28.09;101052.50;5079154;28;878;-40
2022/05/11 00:47:56;;;;;;;;;;;;;;;27.76;28.31;101045.69;5079723;28;806;-39
2022/05/11 00:50:28;;;;;;;;;;;;;;;27.73;28.65;101041.50;5078627;28;1332;-38
2022/05/11 00:53:09;;;;;;;;;;;;;;;27.68;28.74;101038.50;5078755;28;853;-39
2022/05/11 00:55:35;;;;;;;;;;;;;;;27.70;28.64;101039.16;5062618;28;1957;-37
2022/05/11 00:58:15;;;;;;;;;;;;;;;27.86;27.92;101040.91;5079154;28;1144;-36
2022/05/11 01:00:42;;;;;;;;;;;;;;;27.94;28.07;101033.75;5078729;28;849;-37
2022/05/11 01:03:09;;;;;;;;;;;;;;;27.94;28.35;101025.66;5060834;28;901;-38
2022/05/11 01:05:35;;;;;;;;;;;;;;;27.77;28.80;101030.34;5078954;28;825;-39
2022/05/11 01:08:00;;;;;;;;;;;;;;;27.87;28.42;101020.97;5078295;28;881;-38
2022/05/11 01:10:26;;;;;;;;;;;;;;;27.97;28.18;101020.72;5060313;28;1072;-40
2022/05/11 01:12:52;;;;;;;;;;;;;;;27.93;28.22;101018.53;5078348;28;784;-40
2022/05/11 01:15:17;;;;;;;;;;;;;;;27.84;28.71;101015.91;5078355;28;1893;-38
2022/05/11 01:17:43;;;;;;;;;;;;;;;27.94;28.66;101014.81;5060603;28;814;-38
2022/05/11 01:20:10;;;;;;;;;;;;;;;28.01;27.96;101017.66;5078319;28;911;-38
2022/05/11 01:22:45;;;;;;;;;;;;;;;28.03;28.37;101015.59;5078248;28;817;-38
2022/05/11 01:25:10;;;;;;;;;;;;;;;28.03;28.25;101018.31;5078325;28;1102;-37
2022/05/11 01:27:45;;;;;;;;;;;;;;;27.93;28.39;101013.13;5078320;28;822;-41
2022/05/11 01:30:15;;;;;;;;;;;;;;;28.02;28.29;101022.88;5078275;28;769;-40
2022/05/11 01:32:40;;;;;;;;;;;;;;;28.03;27.56;101029.13;5077698;28;900;-40
2022/05/11 01:35:24;;;;;;;;;;;;;;;28.02;28.07;101017.47;5078153;28;856;-38
2022/05/11 01:37:59;;;;;;;;;;;;;;;28.06;28.21;101021.47;5078677;28;758;-39
2022/05/11 01:40:25;;;;;;;;;;;;;;;28.02;28.20;101017.47;5078548;28;837;-37
2022/05/11 01:42:50;;;;;;;;;;;;;;;28.08;28.29;101021.28;5078090;28;884;-40
2022/05/11 01:45:15;;;;;;;;;;;;;;;28.09;27.85;101020.28;5077183;28;982;-38
2022/05/11 01:47:40;;;;;;;;;;;;;;;28.09;28.03;101017.56;5078159;28;893;-38
2022/05/11 01:50:06;;;;;;;;;;;;;;;28.05;28.22;101021.66;5078238;28;927;-37
2022/05/11 01:52:31;;;;;;;;;;;;;;;28.02;28.66;101030.13;5077375;28;782;-40
2022/05/11 01:54:56;;;;;;;;;;;;;;;28.16;28.53;101020.38;5077917;28;909;-39
2022/05/11 01:57:22;;;;;;;;;;;;;;;28.15;28.29;101026.81;5077775;28;1963;-37
2022/05/11 01:59:47;;;;;;;;;;;;;;;28.14;28.64;101027.84;5077606;28;848;-39
2022/05/11 02:02:12;;;;;;;;;;;;;;;28.05;28.72;101025.19;5077690;28;882;-39
2022/05/11 02:10:05;;;;;;;;;;;;;;;28.10;28.54;101020.09;5077375;28;836;-38
2022/05/11 02:12:31;;;;;;;;;;;;;;;28.15;28.15;101033.06;5077416;28;904;-37
2022/05/11 02:14:56;;;;;;;;;;;;;;;28.06;28.59;101023.34;5076850;28;814;-39
2022/05/11 02:17:21;;;;;;;;;;;;;;;28.16;28.75;101023.91;5077787;28;1898;-37
2022/05/11 02:19:47;;;;;;;;;;;;;;;28.26;28.23;101025.53;5077553;28;825;-37
2022/05/11 02:22:14;;;;;;;;;;;;;;;28.19;28.51;101022.72;5077052;28;781;-39
2022/05/11 02:24:39;;;;;;;;;;;;;;;28.15;28.59;101027.66;5077055;28;840;-40
2022/05/11 02:27:04;;;;;;;;;;;;;;;28.06;28.90;101021.47;5076925;28;1068;-38
2022/05/11 02:29:30;;;;;;;;;;;;;;;28.09;28.90;101022.97;5077087;28;1052;-39
2022/05/11 02:31:55;;;;;;;;;;;;;;;28.22;28.40;101022.34;5077066;28;1108;-39
2022/05/11 02:37:04;;;;;;;;;;;;;;;28.08;28.36;101026.69;5076323;28;1917;-40
2022/05/11 02:39:29;;;;;;;;;;;;;;;28.13;28.62;101032.41;5077343;28;870;-36
2022/05/11 02:41:54;;;;;;;;;;;;;;;28.16;28.77;101029.31;5076679;28;889;-39
2022/05/11 02:44:20;;;;;;;;;;;;;;;28.24;28.31;101034.66;5076717;28;830;-37
2022/05/11 02:46:45;;;;;;;;;;;;;;;28.17;28.65;101028.31;5076312;28;1171;-37
2022/05/11 02:49:10;;;;;;;;;;;;;;;28.20;28.62;101029.81;5076646;28;849;-38
2022/05/11 02:51:36;;;;;;;;;;;;;;;28.15;29.05;101029.50;5075927;28;1120;-37
2022/05/11 02:54:01;;;;;;;;;;;;;;;28.23;28.72;101029.44;5076671;28;908;-39
2022/05/11 02:56:26;;;;;;;;;;;;;;;28.12;27.92;101033.44;5076012;28;1905;-42
2022/05/11 02:58:51;;;;;;;;;;;;;;;26.96;24.83;101034.97;5076737;28;916;-41
2022/05/11 03:01:18;;;;;;;;;;;;;;;26.31;25.23;101030.38;5076575;28;922;-38
2022/05/11 03:03:44;;;;;;;;;;;;;;;26.05;25.89;101031.41;5076692;28;852;-43
2022/05/11 03:06:09;;;;;;;;;;;;;;;25.87;25.64;101032.44;5076476;28;738;-43
2022/05/11 03:08:34;;;;;;;;;;;;;;;25.72;25.28;101026.88;5075869;28;1040;-43
2022/05/11 03:11:00;;;;;;;;;;;;;;;25.60;25.35;101030.84;5076091;28;1246;-43
2022/05/11 03:13:26;;;;;;;;;;;;;;;25.46;25.77;101027.78;5075192;28;1202;-43
2022/05/11 03:15:53;;;;;;;;;;;;;;;25.26;26.08;101033.47;5075650;28;1897;-43
2022/05/11 03:18:18;;;;;;;;;;;;;;;25.26;26.05;101032.59;5076574;28;1238;-44
2022/05/11 03:20:43;;;;;;;;;;;;;;;25.17;26.04;101026.38;5075406;28;1215;-43
2022/05/11 03:23:09;;;;;;;;;;;;;;;25.14;26.09;101032.91;5076114;28;1211;-43
2022/05/11 03:25:34;;;;;;;;;;;;;;;25.04;26.30;101024.97;5076068;28;1309;-43
2022/05/11 03:27:59;;;;;;;;;;;;;;;25.15;26.28;101026.53;5075466;28;997;-44
2022/05/11 03:30:25;;;;;;;;;;;;;;;25.18;26.45;101030.75;5075743;28;1289;-43
2022/05/11 03:35:36;;;;;;;;;;;;;;;25.16;26.40;101028.22;5044858;28;1972;-40
2022/05/11 03:38:01;;;;;;;;;;;;;;;25.17;26.58;101031.75;5076570;28;757;-42
2022/05/11 03:40:26;;;;;;;;;;;;;;;25.15;26.39;101028.38;5076049;28;840;-42
2022/05/11 03:42:51;;;;;;;;;;;;;;;25.02;26.08;101035.06;5075935;28;722;-43
2022/05/11 03:45:18;;;;;;;;;;;;;;;24.96;26.47;101026.81;5075643;28;932;-41
2022/05/11 03:47:43;;;;;;;;;;;;;;;24.88;27.56;101030.25;5075805;28;1127;-41
2022/05/11 03:50:09;;;;;;;;;;;;;;;24.22;27.87;101036.94;5075572;28;1179;-42
2022/05/11 03:52:34;;;;;;;;;;;;;;;23.81;28.93;101032.00;5075654;28;1306;-38
2022/05/11 03:54:59;;;;;;;;;;;;;;;24.15;28.09;101039.38;5075611;28;1211;-37
2022/05/11 03:57:25;;;;;;;;;;;;;;;25.09;27.55;101040.63;5075476;28;1890;-38
2022/05/11 03:59:50;;;;;;;;;;;;;;;25.91;26.05;101041.00;5075013;28;998;-37
2022/05/11 04:02:15;;;;;;;;;;;;;;;26.42;25.25;101037.31;5074886;28;869;-35
2022/05/11 04:04:41;;;;;;;;;;;;;;;26.00;26.01;101042.72;5073885;28;1179;-38
2022/05/11 04:07:06;;;;;;;;;;;;;;;25.87;26.51;101042.38;5075092;28;1374;-38
2022/05/11 04:09:31;;;;;;;;;;;;;;;26.17;26.02;101043.53;5079135;28;1255;-37
2022/05/11 04:11:57;;;;;;;;;;;;;;;26.39;26.34;101045.75;5078945;28;1365;-37
2022/05/11 04:14:22;;;;;;;;;;;;;;;26.15;26.76;101050.13;5079759;28;1243;-37
2022/05/11 04:16:53;;;;;;;;;;;;;;;26.04;26.96;101054.81;5078151;28;1897;-38
2022/05/11 04:19:18;;;;;;;;;;;;;;;25.99;27.09;101059.06;5077520;28;1544;-35
2022/05/11 04:21:43;;;;;;;;;;;;;;;25.94;27.13;101062.25;5079435;28;1247;-39
2022/05/11 04:24:09;;;;;;;;;;;;;;;25.95;27.36;101061.25;5079146;28;1477;-39
2022/05/11 04:26:35;;;;;;;;;;;;;;;25.86;27.87;101067.63;5079369;28;1290;-36
2022/05/11 04:29:00;;;;;;;;;;;;;;;25.92;27.54;101058.88;5079879;28;865;-33
2022/05/11 04:31:25;;;;;;;;;;;;;;;26.02;27.91;101070.34;5079263;28;857;-38
2022/05/11 04:33:51;;;;;;;;;;;;;;;26.02;27.79;101070.34;5079301;28;862;-34
2022/05/11 04:36:16;;;;;;;;;;;;;;;25.99;28.04;101062.56;5079272;28;1910;-38
2022/05/11 04:38:41;;;;;;;;;;;;;;;25.96;28.02;101060.22;5079591;28;861;-36
2022/05/11 04:41:07;;;;;;;;;;;;;;;25.97;28.36;101064.63;5079308;28;765;-38
2022/05/11 04:43:33;;;;;;;;;;;;;;;26.00;28.40;101066.13;5078272;28;861;-37
2022/05/11 04:45:58;;;;;;;;;;;;;;;26.00;28.43;101066.13;5078839;28;958;-39
2022/05/11 04:48:24;;;;;;;;;;;;;;;25.94;28.67;101067.66;5079070;28;833;-39
2022/05/11 04:50:49;;;;;;;;;;;;;;;25.94;28.56;101069.50;5079078;28;738;-39
2022/05/11 04:53:15;;;;;;;;;;;;;;;25.95;28.76;101071.16;5079153;28;788;-36
2022/05/11 04:55:40;;;;;;;;;;;;;;;25.99;28.72;101078.75;5078378;28;1949;-38
2022/05/11 04:58:06;;;;;;;;;;;;;;;25.98;28.56;101068.97;5060301;28;1163;-36
2022/05/11 05:00:31;;;;;;;;;;;;;;;26.11;28.84;101076.56;5078653;28;986;-39
2022/05/11 05:02:57;;;;;;;;;;;;;;;26.50;28.07;101076.91;5078808;28;864;-35
2022/05/11 05:05:22;;;;;;;;;;;;;;;26.38;28.14;101073.72;5078749;28;1469;-38
2022/05/11 05:07:47;;;;;;;;;;;;;;;26.25;28.14;101080.44;5078616;28;947;-36
2022/05/11 05:10:13;;;;;;;;;;;;;;;26.33;28.02;101087.72;5079288;28;745;-40
2022/05/11 05:12:39;;;;;;;;;;;;;;;26.32;28.58;101088.72;5079117;28;729;-39
2022/05/11 05:15:05;;;;;;;;;;;;;;;26.28;28.37;101087.34;5079226;28;1042;-39
2022/05/11 05:17:30;;;;;;;;;;;;;;;26.21;28.30;101091.75;5078852;28;1980;-39
2022/05/11 05:19:56;;;;;;;;;;;;;;;26.19;28.72;101094.63;5078132;28;930;-39
2022/05/11 05:22:21;;;;;;;;;;;;;;;26.82;27.77;101094.06;5078251;28;943;-39
2022/05/11 05:24:47;;;;;;;;;;;;;;;26.55;28.06;101095.28;5078648;28;797;-40
2022/05/11 05:27:12;;;;;;;;;;;;;;;26.52;28.21;101097.31;5077824;28;1087;-36
2022/05/11 05:32:22;;;;;;;;;;;;;;;26.49;28.33;101104.91;5058404;28;753;-37
2022/05/11 05:34:47;;;;;;;;;;;;;;;26.46;28.38;101100.69;5070501;28;853;-38
2022/05/11 05:37:12;;;;;;;;;;;;;;;26.46;28.64;101108.78;5077467;28;1917;-37
2022/05/11 05:39:38;;;;;;;;;;;;;;;26.41;28.49;101108.44;5078124;28;1238;-40
2022/05/11 05:42:04;;;;;;;;;;;;;;;26.38;28.60;101106.09;5077439;28;1274;-38
2022/05/11 05:44:31;;;;;;;;;;;;;;;26.43;28.81;101105.56;5077906;28;857;-38
2022/05/11 05:47:03;;;;;;;;;;;;;;;26.45;28.41;101109.81;5074784;28;1049;-39
2022/05/11 05:49:29;;;;;;;;;;;;;;;27.29;27.79;101121.28;5077525;28;1263;-37
2022/05/11 05:51:54;;;;;;;;;;;;;;;27.71;27.17;101113.00;5077208;28;1227;-38
2022/05/11 05:54:19;;;;;;;;;;;;;;;27.27;28.00;101117.91;5077618;28;1239;-38
2022/05/11 05:56:45;;;;;;;;;;;;;;;27.23;28.39;101121.97;5077046;28;1897;-40
2022/05/11 05:59:11;;;;;;;;;;;;;;;27.27;28.26;101123.31;5076649;28;1215;-39
2022/05/11 06:01:38;;;;;;;;;;;;;;;27.39;28.98;101112.97;5077258;28;1350;-38
2022/05/11 06:04:05;;;;;;;;;;;;;;;27.70;27.23;101116.69;5076582;28;1269;-41
2022/05/11 06:06:30;;;;;;;;;;;;;;;28.16;26.69;101120.47;5077023;28;1301;-40
2022/05/11 06:08:55;;;;;;;;;;;;;;;28.02;26.47;101122.91;5077691;28;853;-40
2022/05/11 06:11:20;;;;;;;;;;;;;;;27.64;27.93;101126.34;5076279;28;1247;-40
2022/05/11 06:13:46;;;;;;;;;;;;;;;27.46;27.69;101124.72;5075729;28;1148;-39
2022/05/11 06:16:13;;;;;;;;;;;;;;;27.33;27.52;101125.28;5076814;28;1901;-36
2022/05/11 06:18:41;;;;;;;;;;;;;;;27.34;27.88;101126.97;5076924;28;1242;-40
2022/05/11 06:21:07;;;;;;;;;;;;;;;27.95;27.33;101120.09;5077280;28;861;-41
2022/05/11 06:23:32;;;;;;;;;;;;;;;28.27;26.77;101125.44;5077504;28;769;-36
2022/05/11 06:25:57;;;;;;;;;;;;;;;27.67;26.72;101125.13;5075848;28;1380;-40
2022/05/11 06:28:23;;;;;;;;;;;;;;;27.60;26.82;101122.28;5076437;28;1251;-38
2022/05/11 06:30:48;;;;;;;;;;;;;;;27.60;27.21;101120.44;5075841;28;999;-35
2022/05/11 06:33:13;;;;;;;;;;;;;;;27.35;27.37;101120.56;5076265;28;1246;-39
2022/05/11 06:35:39;;;;;;;;;;;;;;;28.09;26.60;101118.47;5076474;28;1919;-40
2022/05/11 06:38:05;;;;;;;;;;;;;;;27.79;26.91;101115.66;5076131;28;1259;-40
2022/05/11 06:40:30;;;;;;;;;;;;;;;27.65;27.29;101119.06;5058099;28;1259;-39
2022/05/11 06:42:55;;;;;;;;;;;;;;;27.56;27.04;101113.69;5076284;28;1305;-41
2022/05/11 06:45:23;;;;;;;;;;;;;;;27.46;27.37;101113.91;5075944;28;1112;-38
2022/05/11 06:47:49;;;;;;;;;;;;;;;27.50;27.39;101112.56;5076270;28;1314;-40
2022/05/11 06:50:15;;;;;;;;;;;;;;;28.32;26.54;101108.66;5075961;28;1251;-38
2022/05/11 06:52:40;;;;;;;;;;;;;;;27.83;27.05;101119.66;5076399;28;1250;-40
2022/05/11 07:00:33;;;;;;;;;;;;;;;27.84;26.99;101112.41;5076028;28;1196;-40
2022/05/11 07:02:59;;;;;;;;;;;;;;;28.52;26.31;101117.13;5075683;28;1360;-40
2022/05/11 07:05:25;;;;;;;;;;;;;;;27.98;26.40;101113.47;5076214;28;1215;-40
2022/05/11 07:07:50;;;;;;;;;;;;;;;28.04;26.63;101110.06;5076635;28;1175;-41
2022/05/11 07:10:16;;;;;;;;;;;;;;;27.99;26.29;101107.06;5076374;28;1305;-41
2022/05/11 07:12:46;;;;;;;;;;;;;;;27.98;26.13;101111.63;5076168;28;1111;-40
2022/05/11 07:15:11;;;;;;;;;;;;;;;28.38;26.43;101113.34;5075855;28;1084;-39
2022/05/11 07:17:38;;;;;;;;;;;;;;;28.32;25.92;101119.47;5075413;28;1889;-38
2022/05/11 07:20:05;;;;;;;;;;;;;;;28.09;26.54;101106.81;5075871;28;1263;-37
2022/05/11 07:22:31;;;;;;;;;;;;;;;28.14;26.42;101109.81;5076673;28;782;-39
2022/05/11 07:24:56;;;;;;;;;;;;;;;28.10;26.43;101105.78;5075919;28;1267;-37
2022/05/11 07:27:21;;;;;;;;;;;;;;;28.13;26.62;101104.59;5076242;28;1211;-38
2022/05/11 07:29:47;;;;;;;;;;;;;;;28.18;26.70;101111.13;5075535;28;1254;-39
2022/05/11 07:32:13;;;;;;;;;;;;;;;28.59;26.13;101104.53;5075698;28;837;-39
2022/05/11 07:34:41;;;;;;;;;;;;;;;28.24;26.28;101104.16;5076280;28;903;-40
2022/05/11 07:37:06;;;;;;;;;;;;;;;28.28;26.49;101110.06;5076126;28;1906;-39
2022/05/11 07:39:31;;;;;;;;;;;;;;;28.23;26.61;101113.28;5075907;28;877;-38
2022/05/11 07:41:58;;;;;;;;;;;;;;;28.12;26.55;101109.16;5076934;28;924;-37
2022/05/11 07:44:24;;;;;;;;;;;;;;;28.09;26.53;101109.53;5080673;28;789;-38
2022/05/11 07:46:49;;;;;;;;;;;;;;;27.95;26.96;101101.16;5078543;28;1041;-41
2022/05/11 07:49:16;;;;;;;;;;;;;;;28.09;26.96;101104.94;5079678;28;1235;-40
2022/05/11 07:51:43;;;;;;;;;;;;;;;28.18;26.37;101107.56;5080032;28;1211;-41
2022/05/11 07:54:08;;;;;;;;;;;;;;;28.04;26.16;101101.97;5078993;28;1259;-40
2022/05/11 08:02:01;;;;;;;;;;;;;;;28.21;26.29;101088.31;5078996;28;1134;-41
2022/05/11 08:04:27;;;;;;;;;;;;;;;28.23;26.26;101086.22;5061504;28;1323;-41
2022/05/11 08:06:52;;;;;;;;;;;;;;;28.39;26.45;101092.56;5079668;28;1298;-41
2022/05/11 08:09:17;;;;;;;;;;;;;;;28.35;26.40;101090.22;5079567;28;1262;-40
2022/05/11 08:11:42;;;;;;;;;;;;;;;28.23;26.46;101084.38;5079610;28;1345;-41
2022/05/11 08:14:08;;;;;;;;;;;;;;;28.16;26.79;101091.53;5079286;28;1261;-40
2022/05/11 08:16:33;;;;;;;;;;;;;;;28.06;26.64;101089.06;5079077;28;1894;-43
2022/05/11 08:18:59;;;;;;;;;;;;;;;28.02;26.56;101084.22;5078821;28;1282;-42
2022/05/11 08:21:25;;;;;;;;;;;;;;;28.10;26.61;101078.75;5079325;28;1293;-41
2022/05/11 08:23:50;;;;;;;;;;;;;;;28.15;26.38;101084.44;5079076;28;1254;-40
2022/05/11 08:26:16;;;;;;;;;;;;;;;28.22;25.99;101077.28;5078961;28;1241;-43
2022/05/11 08:28:41;;;;;;;;;;;;;;;28.64;26.12;101082.34;5078989;28;1362;-41
2022/05/11 08:33:50;;;;;;;;;;;;;;;28.34;26.01;101074.19;5079063;28;825;-42
2022/05/11 08:36:17;;;;;;;;;;;;;;;28.40;26.17;101080.69;5078552;28;1975;-41
2022/05/11 08:38:43;;;;;;;;;;;;;;;28.35;26.40;101078.56;5078793;28;1239;-42
2022/05/11 08:41:26;;;;;;;;;;;;;;;28.29;26.46;101085.53;5078332;28;1274;-39
2022/05/11 08:43:51;;;;;;;;;;;;;;;28.19;26.93;101076.81;5078164;28;1196;-42
2022/05/11 08:46:16;;;;;;;;;;;;;;;28.20;26.79;101078.47;5059156;28;1002;-41
2022/05/11 08:48:44;;;;;;;;;;;;;;;28.13;26.99;101072.97;5078295;28;1239;-41
2022/05/11 08:51:21;;;;;;;;;;;;;;;28.54;26.35;101076.34;5078468;28;1321;-41
2022/05/11 08:53:48;;;;;;;;;;;;;;;28.31;26.44;101078.03;5059884;28;1235;-41
2022/05/11 08:56:17;;;;;;;;;;;;;;;28.44;26.10;101076.63;5060730;28;1965;-42
2022/05/11 08:58:52;;;;;;;;;;;;;;;28.56;26.26;101077.00;5079394;28;904;-40
2022/05/11 09:01:20;;;;;;;;;;;;;;;28.64;26.10;101070.66;5060078;28;1061;-42
2022/05/11 09:03:45;;;;;;;;;;;;;;;28.65;26.10;101070.47;5078731;28;1302;-39
2022/05/11 09:06:23;;;;;;;;;;;;;;;28.71;26.10;101077.03;5060484;28;1219;-41
2022/05/11 09:08:48;;;;;;;;;;;;;;;28.52;26.51;101076.53;5078743;28;1282;-41
2022/05/11 09:11:14;;;;;;;;;;;;;;;28.83;26.04;101071.97;5077746;28;1278;-38
2022/05/11 09:13:40;;;;;;;;;;;;;;;28.58;26.46;101073.09;5078338;28;1290;-39
2022/05/11 09:16:06;;;;;;;;;;;;;;;28.55;26.58;101072.59;5077525;28;2031;-41
2022/05/11 09:18:31;;;;;;;;;;;;;;;28.44;26.53;101060.38;5078149;28;1290;-41
2022/05/11 09:20:57;;;;;;;;;;;;;;;28.38;26.87;101063.84;5078459;28;1408;-39
2022/05/11 09:23:32;;;;;;;;;;;;;;;28.42;26.52;101059.72;5077666;28;857;-40
2022/05/11 09:25:59;;;;;;;;;;;;;;;28.89;26.00;101065.81;5078487;28;1135;-40
2022/05/11 09:28:25;;;;;;;;;;;;;;;28.64;26.34;101065.25;5076976;28;1438;-40
2022/05/11 09:31:12;;;;;;;;;;;;;;;28.84;25.96;101060.13;5070941;28;1329;-41
2022/05/11 09:33:38;;;;;;;;;;;;;;;28.94;25.51;101067.97;5075962;28;914;-40
2022/05/11 09:36:04;;;;;;;;;;;;;;;28.96;25.71;101068.63;5058914;28;1906;-41
2022/05/11 09:38:32;;;;;;;;;;;;;;;28.85;25.99;101070.75;5059442;28;1345;-40
2022/05/11 09:40:58;;;;;;;;;;;;;;;28.69;26.28;101079.91;5077729;28;813;-40
2022/05/11 09:43:29;;;;;;;;;;;;;;;28.66;26.21;101071.31;5078251;28;806;-37
2022/05/11 09:45:54;;;;;;;;;;;;;;;28.59;26.40;101076.63;5077604;28;1030;-39
2022/05/11 09:48:24;;;;;;;;;;;;;;;28.90;26.22;101074.75;5077761;28;837;-41
2022/05/11 09:50:53;;;;;;;;;;;;;;;28.73;26.22;101078.50;5077704;28;814;-42
2022/05/11 09:53:18;;;;;;;;;;;;;;;28.69;26.26;101076.38;5077591;28;1014;-40
2022/05/11 09:55:44;;;;;;;;;;;;;;;28.72;25.80;101070.56;5077577;28;1894;-40
2022/05/11 09:58:09;;;;;;;;;;;;;;;28.75;25.52;101070.19;5059993;28;1103;-40
2022/05/11 10:00:41;;;;;;;;;;;;;;;28.79;25.55;101068.81;5077343;28;1034;-42
2022/05/11 10:03:10;;;;;;;;;;;;;;;28.62;25.93;101068.16;5057881;28;719;-39
2022/05/11 10:05:43;;;;;;;;;;;;;;;28.75;25.80;101062.06;5038411;28;850;-41
2022/05/11 10:08:15;;;;;;;;;;;;;;;28.56;26.33;101060.78;5057534;28;842;-41
2022/05/11 10:10:44;;;;;;;;;;;;;;;28.44;26.76;101061.22;5057246;28;842;-42
2022/05/11 10:13:21;;;;;;;;;;;;;;;28.40;26.63;101056.34;5057614;28;882;-41
2022/05/11 10:24:18;;;;;;;;;;;;;;;28.51;26.51;101044.25;5057133;28;609;-41
2022/05/11 10:26:49;;;;;;;;;;;;;;;28.56;26.07;101045.34;5061775;28;1265;-41
2022/05/11 10:29:24;;;;;;;;;;;;;;;28.69;25.88;101049.28;5077202;28;733;-41
2022/05/11 10:31:50;;;;;;;;;;;;;;;28.73;25.93;101047.88;5058495;28;992;-42
2022/05/11 10:34:16;;;;;;;;;;;;;;;29.06;25.81;101055.63;5073739;28;857;-41
2022/05/11 10:36:44;;;;;;;;;;;;;;;28.82;26.21;101054.91;5076823;28;1965;-38
2022/05/11 10:39:09;;;;;;;;;;;;;;;28.68;26.57;101048.44;5058506;28;922;-39
2022/05/11 10:41:38;;;;;;;;;;;;;;;28.63;26.87;101041.94;5076651;28;867;-37
2022/05/11 10:44:21;;;;;;;;;;;;;;;28.50;27.18;101046.09;5076415;28;873;-40
2022/05/11 10:46:55;;;;;;;;;;;;;;;28.66;26.84;101038.84;5076978;28;1077;-37
2022/05/11 10:49:53;;;;;;;;;;;;;;;28.62;26.85;101040.22;5058633;28;805;-40
2022/05/11 10:52:33;;;;;;;;;;;;;;;28.48;27.08;101046.28;5019853;28;1212;-41
2022/05/11 10:54:59;;;;;;;;;;;;;;;28.62;26.79;101048.34;5075126;28;1281;-40
2022/05/11 10:57:26;;;;;;;;;;;;;;;28.75;26.46;101040.41;5076189;28;1972;-39
2022/05/11 10:59:53;;;;;;;;;;;;;;;28.85;26.28;101043.69;5058472;28;1089;-40
2022/05/11 11:02:31;;;;;;;;;;;;;;;29.21;26.13;101041.25;5076290;28;860;-41
2022/05/11 11:05:05;;;;;;;;;;;;;;;28.88;26.29;101037.03;5076570;28;960;-41
2022/05/11 11:07:51;;;;;;;;;;;;;;;28.96;26.32;101038.84;5075860;28;777;-39
2022/05/11 11:10:28;;;;;;;;;;;;;;;28.81;26.47;101046.97;5075446;28;943;-40
2022/05/11 11:12:56;;;;;;;;;;;;;;;28.62;26.88;101029.41;5076153;28;802;-40
2022/05/11 11:15:26;;;;;;;;;;;;;;;28.53;27.11;101032.19;5075740;28;1006;-41
2022/05/11 11:17:51;;;;;;;;;;;;;;;28.43;27.40;101035.19;5058114;28;1906;-38
2022/05/11 11:20:17;;;;;;;;;;;;;;;28.82;26.80;101032.38;5057024;28;1309;-41
2022/05/11 11:23:01;;;;;;;;;;;;;;;28.67;26.84;101035.94;5056803;28;1356;-40
2022/05/11 11:25:26;;;;;;;;;;;;;;;28.68;26.73;101032.22;5075706;28;1352;-41
2022/05/11 11:28:03;;;;;;;;;;;;;;;28.80;26.22;101031.72;5075855;28;1345;-39
2022/05/11 11:30:28;;;;;;;;;;;;;;;28.88;26.11;101034.34;5074648;28;1210;-39
2022/05/11 11:33:12;;;;;;;;;;;;;;;29.15;26.18;101037.41;5074951;28;1317;-41
2022/05/11 11:35:51;;;;;;;;;;;;;;;28.81;25.85;101025.31;5075858;28;1990;-38
2022/05/11 11:38:25;;;;;;;;;;;;;;;28.82;26.28;101035.09;5075508;28;1246;-41
2022/05/11 11:41:09;;;;;;;;;;;;;;;28.70;26.46;101024.75;5075250;28;1315;-40
2022/05/11 11:43:42;;;;;;;;;;;;;;;28.56;27.05;101014.78;5074452;28;1332;-39
2022/05/11 11:46:08;;;;;;;;;;;;;;;28.50;27.20;101016.34;5075653;28;1333;-38
2022/05/11 11:48:36;;;;;;;;;;;;;;;28.63;26.82;101017.56;5075291;28;1337;-40
2022/05/11 11:51:03;;;;;;;;;;;;;;;28.62;26.86;101019.44;5074898;28;1392;-40
2022/05/11 11:53:28;;;;;;;;;;;;;;;28.47;27.04;101006.75;5075144;28;1290;-39
2022/05/11 11:55:53;;;;;;;;;;;;;;;28.50;27.19;101007.38;5075028;28;1894;-40
2022/05/11 11:58:31;;;;;;;;;;;;;;;28.54;26.42;101009.53;5056655;28;1349;-40
2022/05/11 12:00:59;;;;;;;;;;;;;;;28.97;26.48;101008.03;5057236;28;1380;-41
2022/05/11 12:03:24;;;;;;;;;;;;;;;28.61;26.13;101006.94;5056140;28;1298;-38
2022/05/11 12:15:01;;;;;;;;;;;;;;;28.75;26.44;100994.41;5075261;28;1420;-40
2022/05/11 12:16:59;;;;;;;;;;;;;;;28.59;26.97;100982.72;5074509;28;1898;-41
2022/05/11 12:19:28;;;;;;;;;;;;;;;28.52;26.90;100986.38;5074367;28;1364;-37
2022/05/11 12:21:56;;;;;;;;;;;;;;;28.40;27.16;100981.44;5072319;28;1293;-39
2022/05/11 12:24:23;;;;;;;;;;;;;;;28.32;27.12;100985.06;5074456;28;1278;-40
2022/05/11 12:26:58;;;;;;;;;;;;;;;28.28;27.50;100982.91;5073899;28;1305;-38
2022/05/11 12:32:10;;;;;;;;;;;;;;;28.50;27.02;100975.75;5078548;28;966;-41
2022/05/11 12:34:39;;;;;;;;;;;;;;;28.63;26.93;100979.69;5078638;28;846;-40
2022/05/11 12:37:10;;;;;;;;;;;;;;;28.66;26.83;100980.13;5078369;28;1906;-40
2022/05/11 12:39:36;;;;;;;;;;;;;;;28.68;26.60;100972.66;5061434;28;778;-37
2022/05/11 12:42:01;;;;;;;;;;;;;;;28.68;26.51;100975.38;5079172;28;857;-41
2022/05/11 12:44:29;;;;;;;;;;;;;;;28.51;27.14;100972.00;5078323;28;805;-37
2022/05/11 12:46:56;;;;;;;;;;;;;;;28.77;26.73;100969.84;5078695;28;1030;-40
2022/05/11 12:49:21;;;;;;;;;;;;;;;28.49;27.27;100968.66;5060914;28;857;-36
2022/05/11 12:51:50;;;;;;;;;;;;;;;28.34;27.65;100971.38;5078778;28;877;-40
2022/05/11 12:54:20;;;;;;;;;;;;;;;28.24;27.44;100971.63;5060878;28;903;-39
2022/05/11 12:56:45;;;;;;;;;;;;;;;28.24;27.74;100968.91;5078750;28;1953;-41
2022/05/11 12:59:17;;;;;;;;;;;;;;;28.47;27.36;100976.13;5059726;28;1333;-38
2022/05/11 13:01:43;;;;;;;;;;;;;;;28.57;26.87;100973.13;5078589;28;951;-40
2022/05/11 13:04:24;;;;;;;;;;;;;;;28.66;26.80;100969.28;5078304;28;845;-39
2022/05/11 13:06:51;;;;;;;;;;;;;;;28.60;26.58;100967.34;5078359;28;889;-40
2022/05/11 13:09:20;;;;;;;;;;;;;;;28.40;26.94;100964.34;5060609;28;837;-38
2022/05/11 13:11:45;;;;;;;;;;;;;;;28.38;27.13;100963.72;5077841;28;853;-38
2022/05/11 13:14:11;;;;;;;;;;;;;;;28.31;27.36;100952.78;5069696;28;923;-40
2022/05/11 13:16:36;;;;;;;;;;;;;;;28.27;27.85;100949.59;5070843;28;1963;-38
2022/05/11 13:19:03;;;;;;;;;;;;;;;28.55;27.35;100959.78;5054298;28;893;-40
2022/05/11 13:21:35;;;;;;;;;;;;;;;28.38;27.54;100956.44;5053049;28;1028;-41
2022/05/11 13:24:00;;;;;;;;;;;;;;;28.31;27.79;100945.47;5054246;28;935;-39
2022/05/11 13:26:29;;;;;;;;;;;;;;;28.32;27.58;100947.19;5072624;28;1111;-41
2022/05/11 13:28:55;;;;;;;;;;;;;;;28.40;27.64;100948.13;5071428;28;1193;-37
2022/05/11 13:31:26;;;;;;;;;;;;;;;28.72;27.12;100943.34;5070024;28;971;-39
2022/05/11 13:33:52;;;;;;;;;;;;;;;28.59;27.22;100944.03;5070626;28;1085;-39
2022/05/11 13:36:17;;;;;;;;;;;;;;;28.69;27.30;100941.03;5071645;28;1910;-39
2022/05/11 13:38:48;;;;;;;;;;;;;;;28.71;26.95;100936.25;5072589;28;1051;-39